Terminal Aerodrome Forecast
Issued by NWS

Home | Current Version | Previous Version | Text Only | Print | Product List | Glossary On
Versions: 1 2 3 4 5 6 7 8 9 10 11 12 13
351
FTUS43 KDVN 220520
TAFBRL
TAF
KBRL 220520Z 2206/2306 16009KT P6SM SCT120
     FM221100 17007KT 6SM BR FEW250
     FM221600 18011KT P6SM FEW250
     FM230000 17007KT P6SM SKC=

USA.gov is the U.S. government's official web portal to all federal, state and local government web resources and services.